sensor_id;sensor_type;location;lat;lon;timestamp;pressure;altitude;pressure_sealevel;temperature;humidity
4814;BME280;15375;48.540;9.268;2023-11-21T00:01:39;96767.66;;;7.62;100.00
4814;BME280;15375;48.540;9.268;2023-11-21T00:04:05;96777.75;;;7.62;100.00
4814;BME280;15375;48.540;9.268;2023-11-21T00:06:32;96760.84;;;7.51;100.00
4814;BME280;15375;48.540;9.268;2023-11-21T00:08:57;96764.75;;;7.50;100.00
4814;BME280;15375;48.540;9.268;2023-11-21T00:11:23;96764.75;;;7.50;100.00
4814;BME280;15375;48.540;9.268;2023-11-21T00:13:50;96777.75;;;7.62;100.00
4814;BME280;15375;48.540;9.268;2023-11-21T00:16:15;96748.47;;;7.50;100.00
4814;BME280;15375;48.540;9.268;2023-11-21T00:18:41;96784.88;;;7.76;100.00
4814;BME280;15375;48.540;9.268;2023-11-21T00:21:08;96718.31;;;7.44;100.00
4814;BME280;15375;48.540;9.268;2023-11-21T00:23:34;96782.47;;;7.81;100.00
4814;BME280;15375;48.540;9.268;2023-11-21T00:25:59;96770.56;;;7.75;100.00
4814;BME280;15375;48.540;9.268;2023-11-21T00:28:25;96750.16;;;7.67;100.00
4814;BME280;15375;48.540;9.268;2023-11-21T00:30:50;96754.69;;;7.73;100.00
4814;BME280;15375;48.540;9.268;2023-11-21T00:33:15;96762.06;;;7.73;100.00
4814;BME280;15375;48.540;9.268;2023-11-21T00:35:41;96750.97;;;7.64;100.00
4814;BME280;15375;48.540;9.268;2023-11-21T00:38:06;96764.41;;;7.71;100.00
4814;BME280;15375;48.540;9.268;2023-11-21T00:40:33;96745.59;;;7.60;100.00
4814;BME280;15375;48.540;9.268;2023-11-21T00:42:58;96767.00;;;7.78;100.00
4814;BME280;15375;48.540;9.268;2023-11-21T00:45:24;96777.66;;;7.92;100.00
4814;BME280;15375;48.540;9.268;2023-11-21T00:47:50;96776.22;;;7.84;100.00
4814;BME280;15375;48.540;9.268;2023-11-21T00:50:15;96762.78;;;7.77;100.00
4814;BME280;15375;48.540;9.268;2023-11-21T00:52:41;96781.53;;;7.91;100.00
4814;BME280;15375;48.540;9.268;2023-11-21T00:55:06;96786.81;;;8.02;100.00
4814;BME280;15375;48.540;9.268;2023-11-21T00:57:33;96779.56;;;7.95;100.00
4814;BME280;15375;48.540;9.268;2023-11-21T00:59:58;96764.69;;;7.80;100.00
4814;BME280;15375;48.540;9.268;2023-11-21T01:02:24;96769.16;;;7.90;100.00
4814;BME280;15375;48.540;9.268;2023-11-21T01:04:51;96768.69;;;7.95;100.00
4814;BME280;15375;48.540;9.268;2023-11-21T01:07:16;96761.13;;;7.83;100.00
4814;BME280;15375;48.540;9.268;2023-11-21T01:09:42;96753.88;;;7.77;100.00
4814;BME280;15375;48.540;9.268;2023-11-21T01:12:09;96773.28;;;7.98;100.00
4814;BME280;15375;48.540;9.268;2023-11-21T01:14:34;96759.13;;;7.87;100.00
4814;BME280;15375;48.540;9.268;2023-11-21T01:17:00;96768.75;;;7.92;100.00
4814;BME280;15375;48.540;9.268;2023-11-21T01:19:26;96757.22;;;7.84;100.00
4814;BME280;15375;48.540;9.268;2023-11-21T01:21:51;96732.38;;;7.62;100.00
4814;BME280;15375;48.540;9.268;2023-11-21T01:24:18;96741.28;;;7.63;100.00
4814;BME280;15375;48.540;9.268;2023-11-21T01:26:43;96739.28;;;7.67;100.00
4814;BME280;15375;48.540;9.268;2023-11-21T01:29:10;96754.28;;;7.75;100.00
4814;BME280;15375;48.540;9.268;2023-11-21T01:31:36;96744.72;;;7.67;100.00
4814;BME280;15375;48.540;9.268;2023-11-21T01:34:01;96753.56;;;7.71;100.00
4814;BME280;15375;48.540;9.268;2023-11-21T01:36:31;96757.34;;;7.77;100.00
4814;BME280;15375;48.540;9.268;2023-11-21T01:38:59;96737.41;;;7.64;100.00
4814;BME280;15375;48.540;9.268;2023-11-21T01:41:28;96716.75;;;7.47;100.00
4814;BME280;15375;48.540;9.268;2023-11-21T01:43:54;96748.00;;;7.78;100.00
4814;BME280;15375;48.540;9.268;2023-11-21T01:46:20;96731.03;;;7.74;100.00
4814;BME280;15375;48.540;9.268;2023-11-21T01:48:48;96748.00;;;7.78;100.00
4814;BME280;15375;48.540;9.268;2023-11-21T01:51:14;96723.94;;;7.57;100.00
4814;BME280;15375;48.540;9.268;2023-11-21T01:53:40;96663.03;;;7.12;100.00
4814;BME280;15375;48.540;9.268;2023-11-21T01:56:06;96719.44;;;7.47;100.00
4814;BME280;15375;48.540;9.268;2023-11-21T01:58:33;96741.81;;;7.54;100.00
4814;BME280;15375;48.540;9.268;2023-11-21T02:00:58;96737.63;;;7.50;100.00
4814;BME280;15375;48.540;9.268;2023-11-21T02:03:24;96699.97;;;7.29;100.00
4814;BME280;15375;48.540;9.268;2023-11-21T02:05:54;96741.88;;;7.51;100.00
4814;BME280;15375;48.540;9.268;2023-11-21T02:08:19;96751.38;;;7.62;100.00
4814;BME280;15375;48.540;9.268;2023-11-21T02:10:45;96751.31;;;7.66;100.00
4814;BME280;15375;48.540;9.268;2023-11-21T02:13:11;96745.88;;;7.66;100.00
4814;BME280;15375;48.540;9.268;2023-11-21T02:15:37;96737.50;;;7.57;100.00
4814;BME280;15375;48.540;9.268;2023-11-21T02:18:03;96748.91;;;7.71;100.00
4814;BME280;15375;48.540;9.268;2023-11-21T02:20:31;96757.47;;;7.70;100.00
4814;BME280;15375;48.540;9.268;2023-11-21T02:22:59;96742.00;;;7.67;100.00
4814;BME280;15375;48.540;9.268;2023-11-21T02:27:51;96745.41;;;7.71;100.00
4814;BME280;15375;48.540;9.268;2023-11-21T02:30:16;96693.97;;;7.41;100.00
4814;BME280;15375;48.540;9.268;2023-11-21T02:32:42;96743.06;;;7.73;100.00
4814;BME280;15375;48.540;9.268;2023-11-21T02:35:08;96735.75;;;7.70;100.00
4814;BME280;15375;48.540;9.268;2023-11-21T02:37:34;96741.47;;;7.76;100.00
4814;BME280;15375;48.540;9.268;2023-11-21T02:40:00;96715.84;;;7.53;100.00
4814;BME280;15375;48.540;9.268;2023-11-21T02:42:28;96719.00;;;7.52;100.00
4814;BME280;15375;48.540;9.268;2023-11-21T02:44:54;96744.41;;;7.61;100.00
4814;BME280;15375;48.540;9.268;2023-11-21T02:47:19;96732.19;;;7.50;100.00
4814;BME280;15375;48.540;9.268;2023-11-21T02:49:45;96728.75;;;7.46;100.00
4814;BME280;15375;48.540;9.268;2023-11-21T02:52:10;96699.25;;;7.25;100.00
4814;BME280;15375;48.540;9.268;2023-11-21T02:54:35;96712.63;;;7.35;100.00
4814;BME280;15375;48.540;9.268;2023-11-21T02:57:02;96739.88;;;7.55;100.00
4814;BME280;15375;48.540;9.268;2023-11-21T02:59:27;96727.16;;;7.48;100.00
4814;BME280;15375;48.540;9.268;2023-11-21T03:01:53;96737.97;;;7.52;100.00
4814;BME280;15375;48.540;9.268;2023-11-21T03:04:18;96733.31;;;7.52;100.00
4814;BME280;15375;48.540;9.268;2023-11-21T03:06:45;96743.34;;;7.55;100.00
4814;BME280;15375;48.540;9.268;2023-11-21T03:09:11;96729.06;;;7.51;100.00
4814;BME280;15375;48.540;9.268;2023-11-21T03:11:39;96728.72;;;7.49;100.00
4814;BME280;15375;48.540;9.268;2023-11-21T03:14:05;96741.34;;;7.59;100.00
4814;BME280;15375;48.540;9.268;2023-11-21T03:16:32;96735.56;;;7.57;100.00
4814;BME280;15375;48.540;9.268;2023-11-21T03:18:57;96685.44;;;7.16;100.00
4814;BME280;15375;48.540;9.268;2023-11-21T03:21:22;96736.50;;;7.47;100.00
4814;BME280;15375;48.540;9.268;2023-11-21T03:23:48;96709.66;;;7.30;100.00
4814;BME280;15375;48.540;9.268;2023-11-21T03:26:13;96732.28;;;7.43;100.00
4814;BME280;15375;48.540;9.268;2023-11-21T03:28:39;96732.28;;;7.43;100.00
4814;BME280;15375;48.540;9.268;2023-11-21T03:31:04;96732.66;;;7.45;100.00
4814;BME280;15375;48.540;9.268;2023-11-21T03:33:31;96726.94;;;7.39;100.00
4814;BME280;15375;48.540;9.268;2023-11-21T03:35:57;96733.03;;;7.47;100.00
4814;BME280;15375;48.540;9.268;2023-11-21T03:38:23;96727.16;;;7.48;100.00
4814;BME280;15375;48.540;9.268;2023-11-21T03:40:48;96719.50;;;7.43;100.00
4814;BME280;15375;48.540;9.268;2023-11-21T03:43:14;96738.22;;;7.61;100.00
4814;BME280;15375;48.540;9.268;2023-11-21T03:45:39;96714.03;;;7.47;100.00
4814;BME280;15375;48.540;9.268;2023-11-21T03:48:06;96675.72;;;7.18;100.00
4814;BME280;15375;48.540;9.268;2023-11-21T03:50:31;96721.44;;;7.43;100.00
4814;BME280;15375;48.540;9.268;2023-11-21T03:52:57;96719.00;;;7.52;100.00
4814;BME280;15375;48.540;9.268;2023-11-21T03:55:22;96738.56;;;7.63;100.00
4814;BME280;15375;48.540;9.268;2023-11-21T03:57:50;96747.44;;;7.67;100.00
4814;BME280;15375;48.540;9.268;2023-11-21T04:00:16;96736.22;;;7.65;100.00
4814;BME280;15375;48.540;9.268;2023-11-21T04:02:42;96742.69;;;7.71;100.00
4814;BME280;15375;48.540;9.268;2023-11-21T04:05:07;96709.59;;;7.56;100.00
4814;BME280;15375;48.540;9.268;2023-11-21T04:07:34;96736.94;;;7.69;100.00
4814;BME280;15375;48.540;9.268;2023-11-21T04:10:00;96739.63;;;7.69;100.00
4814;BME280;15375;48.540;9.268;2023-11-21T04:12:25;96727.72;;;7.63;100.00
4814;BME280;15375;48.540;9.268;2023-11-21T04:14:50;96735.75;;;7.70;100.00
4814;BME280;15375;48.540;9.268;2023-11-21T04:17:18;96742.78;;;7.67;100.00
4814;BME280;15375;48.540;9.268;2023-11-21T04:19:44;96742.69;;;7.71;100.00
4814;BME280;15375;48.540;9.268;2023-11-21T04:22:11;96745.88;;;7.66;100.00
4814;BME280;15375;48.540;9.268;2023-11-21T04:24:36;96731.31;;;7.56;100.00
4814;BME280;15375;48.540;9.268;2023-11-21T04:27:02;96741.66;;;7.65;100.00
4814;BME280;15375;48.540;9.268;2023-11-21T04:29:28;96749.81;;;7.65;100.00
4814;BME280;15375;48.540;9.268;2023-11-21T04:31:53;96741.69;;;7.61;100.00
4814;BME280;15375;48.540;9.268;2023-11-21T04:34:19;96729.09;;;7.48;100.00
4814;BME280;15375;48.540;9.268;2023-11-21T04:36:44;96751.09;;;7.57;100.00
4814;BME280;15375;48.540;9.268;2023-11-21T04:39:09;96735.38;;;7.45;100.00
4814;BME280;15375;48.540;9.268;2023-11-21T04:41:35;96746.94;;;7.49;100.00
4814;BME280;15375;48.540;9.268;2023-11-21T04:44:01;96769.97;;;7.64;100.00
4814;BME280;15375;48.540;9.268;2023-11-21T04:46:27;96729.97;;;7.45;100.00
4814;BME280;15375;48.540;9.268;2023-11-21T04:48:52;96726.94;;;7.39;100.00
4814;BME280;15375;48.540;9.268;2023-11-21T04:51:17;96727.72;;;7.40;100.00
4814;BME280;15375;48.540;9.268;2023-11-21T04:53:42;96772.22;;;7.69;100.00
4814;BME280;15375;48.540;9.268;2023-11-21T04:56:08;96757.56;;;7.63;100.00
4814;BME280;15375;48.540;9.268;2023-11-21T04:58:34;96740.81;;;7.45;100.00
4814;BME280;15375;48.540;9.268;2023-11-21T05:01:00;96768.50;;;7.59;100.00
4814;BME280;15375;48.540;9.268;2023-11-21T05:03:25;96746.47;;;7.54;100.00
4814;BME280;15375;48.540;9.268;2023-11-21T05:05:51;96744.56;;;7.51;100.00
4814;BME280;15375;48.540;9.268;2023-11-21T05:08:16;96755.03;;;7.52;100.00
4814;BME280;15375;48.540;9.268;2023-11-21T05:10:42;96774.56;;;7.67;100.00
4814;BME280;15375;48.540;9.268;2023-11-21T05:13:07;96780.00;;;7.67;100.00
4814;BME280;15375;48.540;9.268;2023-11-21T05:15:36;96755.50;;;7.47;100.00
4814;BME280;15375;48.540;9.268;2023-11-21T05:18:02;96780.41;;;7.65;100.00
4814;BME280;15375;48.540;9.268;2023-11-21T05:20:28;96743.22;;;7.39;100.00
4814;BME280;15375;48.540;9.268;2023-11-21T05:22:53;96725.19;;;7.26;100.00
4814;BME280;15375;48.540;9.268;2023-11-21T05:25:18;96765.88;;;7.52;100.00
4814;BME280;15375;48.540;9.268;2023-11-21T05:27:45;96743.72;;;7.31;100.00
4814;BME280;15375;48.540;9.268;2023-11-21T05:30:11;96799.13;;;7.60;100.00
4814;BME280;15375;48.540;9.268;2023-11-21T05:32:37;96795.66;;;7.56;100.00
4814;BME280;15375;48.540;9.268;2023-11-21T05:35:02;96754.97;;;7.29;100.00
4814;BME280;15375;48.540;9.268;2023-11-21T05:37:28;96800.06;;;7.46;100.00
4814;BME280;15375;48.540;9.268;2023-11-21T05:39:53;96789.69;;;7.41;100.00
4814;BME280;15375;48.540;9.268;2023-11-21T05:42:22;96796.00;;;7.35;100.00
4814;BME280;15375;48.540;9.268;2023-11-21T05:44:48;96791.97;;;7.43;100.00
4814;BME280;15375;48.540;9.268;2023-11-21T05:47:14;96793.94;;;7.42;100.00
4814;BME280;15375;48.540;9.268;2023-11-21T05:49:39;96792.50;;;7.34;100.00
4814;BME280;15375;48.540;9.268;2023-11-21T05:52:04;96806.56;;;7.26;100.00
4814;BME280;15375;48.540;9.268;2023-11-21T05:54:30;96784.63;;;7.13;100.00
4814;BME280;15375;48.540;9.268;2023-11-21T05:56:55;96757.75;;;6.95;100.00
4814;BME280;15375;48.540;9.268;2023-11-21T05:59:21;96801.22;;;7.19;100.00
4814;BME280;15375;48.540;9.268;2023-11-21T06:01:46;96783.41;;;7.18;100.00
4814;BME280;15375;48.540;9.268;2023-11-21T06:04:12;96809.22;;;7.29;100.00
4814;BME280;15375;48.540;9.268;2023-11-21T06:06:38;96800.06;;;7.20;100.00
4814;BME280;15375;48.540;9.268;2023-11-21T06:09:04;96799.69;;;7.18;100.00
4814;BME280;15375;48.540;9.268;2023-11-21T06:11:31;96824.38;;;7.27;100.00
4814;BME280;15375;48.540;9.268;2023-11-21T06:13:56;96797.53;;;7.05;100.00
4814;BME280;15375;48.540;9.268;2023-11-21T06:16:22;96824.50;;;7.16;100.00
4814;BME280;15375;48.540;9.268;2023-11-21T06:18:47;96788.78;;;6.94;100.00
4814;BME280;15375;48.540;9.268;2023-11-21T06:21:13;96822.56;;;7.17;100.00
4814;BME280;15375;48.540;9.268;2023-11-21T06:23:38;96814.47;;;7.13;100.00
4814;BME280;15375;48.540;9.268;2023-11-21T06:26:04;96804.94;;;7.01;100.00
4814;BME280;15375;48.540;9.268;2023-11-21T06:28:30;96825.69;;;7.15;100.00
4814;BME280;15375;48.540;9.268;2023-11-21T06:30:56;96840.66;;;7.27;100.00
4814;BME280;15375;48.540;9.268;2023-11-21T06:33:23;96803.72;;;7.06;100.00
4814;BME280;15375;48.540;9.268;2023-11-21T06:35:49;96812.97;;;7.08;100.00
4814;BME280;15375;48.540;9.268;2023-11-21T06:38:15;96833.06;;;7.15;100.00
4814;BME280;15375;48.540;9.268;2023-11-21T06:40:40;96839.91;;;7.23;100.00
4814;BME280;15375;48.540;9.268;2023-11-21T06:43:06;96808.09;;;6.96;100.00
4814;BME280;15375;48.540;9.268;2023-11-21T06:45:32;96851.19;;;7.21;100.00
4814;BME280;15375;48.540;9.268;2023-11-21T06:47:59;96861.53;;;7.30;100.00
4814;BME280;15375;48.540;9.268;2023-11-21T06:50:24;96836.94;;;7.14;100.00
4814;BME280;15375;48.540;9.268;2023-11-21T06:52:50;96831.97;;;7.08;100.00
4814;BME280;15375;48.540;9.268;2023-11-21T06:55:15;96847.25;;;7.26;100.00
4814;BME280;15375;48.540;9.268;2023-11-21T06:57:41;96846.47;;;7.25;100.00
4814;BME280;15375;48.540;9.268;2023-11-21T07:00:07;96875.63;;;7.48;100.00
4814;BME280;15375;48.540;9.268;2023-11-21T07:02:34;96866.69;;;7.51;100.00
4814;BME280;15375;48.540;9.268;2023-11-21T07:04:59;96861.66;;;7.49;100.00
4814;BME280;15375;48.540;9.268;2023-11-21T07:07:25;96866.22;;;7.56;100.00
4814;BME280;15375;48.540;9.268;2023-11-21T07:09:50;96853.53;;;7.49;100.00
4814;BME280;15375;48.540;9.268;2023-11-21T07:12:17;96868.44;;;7.64;100.00
4814;BME280;15375;48.540;9.268;2023-11-21T07:14:43;96874.22;;;7.66;100.00
4814;BME280;15375;48.540;9.268;2023-11-21T07:17:10;96863.97;;;7.51;100.00
4814;BME280;15375;48.540;9.268;2023-11-21T07:19:37;96871.66;;;7.56;100.00
4814;BME280;15375;48.540;9.268;2023-11-21T07:22:03;96868.91;;;7.59;100.00
4814;BME280;15375;48.540;9.268;2023-11-21T07:24:28;96890.22;;;7.88;100.00
4814;BME280;15375;48.540;9.268;2023-11-21T07:26:54;96884.00;;;7.87;100.00
4814;BME280;15375;48.540;9.268;2023-11-21T07:29:22;96885.91;;;7.90;100.00
4814;BME280;15375;48.540;9.268;2023-11-21T07:31:48;96868.91;;;7.86;100.00
4814;BME280;15375;48.540;9.268;2023-11-21T07:34:13;96883.09;;;7.97;100.00
4814;BME280;15375;48.540;9.268;2023-11-21T07:36:38;96860.09;;;7.79;100.00
4814;BME280;15375;48.540;9.268;2023-11-21T07:39:04;96858.84;;;7.83;100.00
4814;BME280;15375;48.540;9.268;2023-11-21T07:41:31;96883.16;;;8.17;100.00
4814;BME280;15375;48.540;9.268;2023-11-21T07:44:00;96887.06;;;8.16;100.00
4814;BME280;15375;48.540;9.268;2023-11-21T07:46:26;96890.44;;;8.23;100.00
4814;BME280;15375;48.540;9.268;2023-11-21T07:48:52;96877.19;;;8.29;100.00
4814;BME280;15375;48.540;9.268;2023-11-21T07:51:18;96898.75;;;8.40;100.00
4814;BME280;15375;48.540;9.268;2023-11-21T07:53:43;96887.41;;;8.45;100.00
4814;BME280;15375;48.540;9.268;2023-11-21T07:56:09;96901.16;;;8.57;100.00
4814;BME280;15375;48.540;9.268;2023-11-21T07:58:35;96913.47;;;8.65;100.00
4814;BME280;15375;48.540;9.268;2023-11-21T08:01:05;96914.34;;;8.59;100.00
4814;BME280;15375;48.540;9.268;2023-11-21T08:03:30;96904.38;;;8.52;100.00
4814;BME280;15375;48.540;9.268;2023-11-21T08:05:59;96906.72;;;8.50;100.00
4814;BME280;15375;48.540;9.268;2023-11-21T08:08:25;96908.25;;;8.51;100.00
4814;BME280;15375;48.540;9.268;2023-11-21T08:10:51;96909.38;;;8.54;100.00
4814;BME280;15375;48.540;9.268;2023-11-21T08:13:24;96927.38;;;8.71;100.00
4814;BME280;15375;48.540;9.268;2023-11-21T08:15:49;96903.28;;;8.46;100.00
4814;BME280;15375;48.540;9.268;2023-11-21T08:18:15;96894.09;;;8.40;100.00
4814;BME280;15375;48.540;9.268;2023-11-21T08:20:42;96905.63;;;8.48;100.00
4814;BME280;15375;48.540;9.268;2023-11-21T08:23:07;96923.69;;;8.58;100.00
4814;BME280;15375;48.540;9.268;2023-11-21T08:25:33;96910.16;;;8.54;100.00
4814;BME280;15375;48.540;9.268;2023-11-21T08:28:00;96918.38;;;8.51;100.00
4814;BME280;15375;48.540;9.268;2023-11-21T08:30:25;96919.97;;;8.48;100.00
4814;BME280;15375;48.540;9.268;2023-11-21T08:32:52;96893.78;;;8.34;100.00
4814;BME280;15375;48.540;9.268;2023-11-21T08:35:18;96895.13;;;8.46;100.00
4814;BME280;15375;48.540;9.268;2023-11-21T08:37:44;96918.59;;;8.60;100.00
4814;BME280;15375;48.540;9.268;2023-11-21T08:40:10;96915.88;;;8.60;100.00
4814;BME280;15375;48.540;9.268;2023-11-21T08:42:37;96936.09;;;8.82;100.00
4814;BME280;15375;48.540;9.268;2023-11-21T08:45:03;96931.13;;;8.77;100.00
4814;BME280;15375;48.540;9.268;2023-11-21T08:47:29;96931.41;;;8.82;100.00
4814;BME280;15375;48.540;9.268;2023-11-21T08:49:54;96925.94;;;8.86;100.00
4814;BME280;15375;48.540;9.268;2023-11-21T08:52:20;96918.94;;;8.85;100.00
4814;BME280;15375;48.540;9.268;2023-11-21T08:54:51;96914.41;;;8.78;100.00
4814;BME280;15375;48.540;9.268;2023-11-21T08:57:22;96906.31;;;8.75;100.00
4814;BME280;15375;48.540;9.268;2023-11-21T08:59:47;96913.22;;;8.79;100.00
4814;BME280;15375;48.540;9.268;2023-11-21T09:02:13;96918.34;;;8.74;100.00
4814;BME280;15375;48.540;9.268;2023-11-21T09:04:38;96950.16;;;9.00;100.00
4814;BME280;15375;48.540;9.268;2023-11-21T09:07:04;96938.63;;;8.92;100.00
4814;BME280;15375;48.540;9.268;2023-11-21T09:09:29;96955.06;;;9.09;100.00
4814;BME280;15375;48.540;9.268;2023-11-21T09:11:55;96925.97;;;9.06;100.00
4814;BME280;15375;48.540;9.268;2023-11-21T09:14:20;96925.19;;;9.05;100.00
4814;BME280;15375;48.540;9.268;2023-11-21T09:16:46;96933.34;;;9.05;100.00
4814;BME280;15375;48.540;9.268;2023-11-21T09:19:12;96937.44;;;8.93;100.00
4814;BME280;15375;48.540;9.268;2023-11-21T09:21:39;96953.03;;;9.13;100.00
4814;BME280;15375;48.540;9.268;2023-11-21T09:24:05;96951.69;;;9.01;100.00
4814;BME280;15375;48.540;9.268;2023-11-21T09:26:30;96924.25;;;8.92;100.00
4814;BME280;15375;48.540;9.268;2023-11-21T09:28:56;96950.25;;;9.16;100.00
4814;BME280;15375;48.540;9.268;2023-11-21T09:31:22;96927.56;;;9.03;100.00
4814;BME280;15375;48.540;9.268;2023-11-21T09:33:49;96952.00;;;9.26;100.00
4814;BME280;15375;48.540;9.268;2023-11-21T09:36:14;96967.63;;;9.22;100.00
4814;BME280;15375;48.540;9.268;2023-11-21T09:38:40;96943.16;;;8.99;100.00
4814;BME280;15375;48.540;9.268;2023-11-21T09:41:26;96966.78;;;9.25;100.00
4814;BME280;15375;48.540;9.268;2023-11-21T09:43:57;96939.72;;;9.18;100.00
4814;BME280;15375;48.540;9.268;2023-11-21T09:46:27;96951.03;;;9.36;100.00
4814;BME280;15375;48.540;9.268;2023-11-21T09:48:53;96990.47;;;9.68;100.00
4814;BME280;15375;48.540;9.268;2023-11-21T09:51:24;96964.50;;;9.63;100.00
4814;BME280;15375;48.540;9.268;2023-11-21T09:53:56;96976.56;;;9.82;100.00
4814;BME280;15375;48.540;9.268;2023-11-21T09:56:24;96968.59;;;9.91;100.00
4814;BME280;15375;48.540;9.268;2023-11-21T09:58:53;96937.41;;;9.76;100.00
4814;BME280;15375;48.540;9.268;2023-11-21T10:01:19;96937.31;;;9.59;100.00
4814;BME280;15375;48.540;9.268;2023-11-21T10:03:45;96958.03;;;9.93;100.00
4814;BME280;15375;48.540;9.268;2023-11-21T10:06:13;96977.38;;;10.18;100.00
4814;BME280;15375;48.540;9.268;2023-11-21T10:08:40;96968.97;;;10.29;100.00
4814;BME280;15375;48.540;9.268;2023-11-21T10:11:06;96963.41;;;10.16;100.00
4814;BME280;15375;48.540;9.268;2023-11-21T10:13:37;96961.16;;;10.11;100.00
4814;BME280;15375;48.540;9.268;2023-11-21T10:16:04;96967.56;;;10.20;100.00
4814;BME280;15375;48.540;9.268;2023-11-21T10:18:31;96972.34;;;10.16;100.00
4814;BME280;15375;48.540;9.268;2023-11-21T10:20:59;96995.88;;;10.27;100.00
4814;BME280;15375;48.540;9.268;2023-11-21T10:23:25;96979.34;;;9.98;100.00
4814;BME280;15375;48.540;9.268;2023-11-21T10:25:53;96971.88;;;9.82;100.00
4814;BME280;15375;48.540;9.268;2023-11-21T10:28:20;96982.03;;;9.82;100.00
4814;BME280;15375;48.540;9.268;2023-11-21T10:30:46;96968.63;;;9.51;100.00
4814;BME280;15375;48.540;9.268;2023-11-21T10:33:11;96981.38;;;9.54;100.00
4814;BME280;15375;48.540;9.268;2023-11-21T10:35:48;96973.00;;;9.45;100.00
4814;BME280;15375;48.540;9.268;2023-11-21T10:38:17;96975.88;;;9.38;100.00
4814;BME280;15375;48.540;9.268;2023-11-21T10:40:43;96976.22;;;9.40;100.00
4814;BME280;15375;48.540;9.268;2023-11-21T10:43:10;96986.41;;;9.36;100.00
4814;BME280;15375;48.540;9.268;2023-11-21T10:45:39;97005.47;;;9.36;100.00
4814;BME280;15375;48.540;9.268;2023-11-21T10:48:05;96991.56;;;9.31;100.00
4814;BME280;15375;48.540;9.268;2023-11-21T10:50:33;97005.81;;;9.38;100.00
4814;BME280;15375;48.540;9.268;2023-11-21T10:53:01;97018.38;;;9.52;100.00
4814;BME280;15375;48.540;9.268;2023-11-21T10:55:27;96976.97;;;9.21;100.00
4814;BME280;15375;48.540;9.268;2023-11-21T10:57:53;97005.34;;;9.43;100.00
4814;BME280;15375;48.540;9.268;2023-11-21T11:00:20;97016.44;;;9.52;100.00
4814;BME280;15375;48.540;9.268;2023-11-21T11:02:51;97018.13;;;9.46;100.00
4814;BME280;15375;48.540;9.268;2023-11-21T11:05:19;96994.00;;;9.25;100.00
4814;BME280;15375;48.540;9.268;2023-11-21T11:07:48;97006.28;;;9.33;100.00
4814;BME280;15375;48.540;9.268;2023-11-21T11:10:19;97011.50;;;9.24;100.00
4814;BME280;15375;48.540;9.268;2023-11-21T11:12:47;96989.84;;;9.17;100.00
4814;BME280;15375;48.540;9.268;2023-11-21T11:15:15;96989.66;;;9.08;100.00
4814;BME280;15375;48.540;9.268;2023-11-21T11:17:41;96999.22;;;9.16;100.00
4814;BME280;15375;48.540;9.268;2023-11-21T11:20:10;97004.75;;;9.32;100.00
4814;BME280;15375;48.540;9.268;2023-11-21T11:33:20;96996.25;;;9.70;100.00
4814;BME280;15375;48.540;9.268;2023-11-21T11:38:16;96995.91;;;9.48;100.00
4814;BME280;15375;48.540;9.268;2023-11-21T11:40:45;96967.72;;;9.38;100.00
4814;BME280;15375;48.540;9.268;2023-11-21T11:43:11;96989.44;;;9.61;100.00
4814;BME280;15375;48.540;9.268;2023-11-21T11:45:37;96975.88;;;9.38;100.00
4814;BME280;15375;48.540;9.268;2023-11-21T11:48:07;96993.38;;;9.57;100.00
4814;BME280;15375;48.540;9.268;2023-11-21T11:50:33;96979.03;;;9.56;100.00
4814;BME280;15375;48.540;9.268;2023-11-21T11:53:17;96986.44;;;9.56;100.00
4814;BME280;15375;48.540;9.268;2023-11-21T11:55:45;97013.50;;;9.43;100.00
4814;BME280;15375;48.540;9.268;2023-11-21T11:58:10;97020.72;;;9.30;100.00
4814;BME280;15375;48.540;9.268;2023-11-21T12:00:36;97017.53;;;9.35;100.00
4814;BME280;15375;48.540;9.268;2023-11-21T12:03:07;97006.78;;;9.28;100.00
4814;BME280;15375;48.540;9.268;2023-11-21T12:05:35;96964.53;;;9.20;100.00
4814;BME280;15375;48.540;9.268;2023-11-21T12:08:05;97010.81;;;9.40;100.00
4814;BME280;15375;48.540;9.268;2023-11-21T12:10:33;96998.81;;;9.37;100.00
4814;BME280;15375;48.540;9.268;2023-11-21T12:13:09;97022.00;;;9.45;100.00
4814;BME280;15375;48.540;9.268;2023-11-21T12:15:37;97010.47;;;9.38;100.00
4814;BME280;15375;48.540;9.268;2023-11-21T12:18:03;96999.09;;;9.23;100.00
4814;BME280;15375;48.540;9.268;2023-11-21T12:20:29;97016.75;;;9.35;100.00
4814;BME280;15375;48.540;9.268;2023-11-21T12:22:58;97027.75;;;9.51;100.00
4814;BME280;15375;48.540;9.268;2023-11-21T12:25:28;97024.59;;;9.52;100.00
4814;BME280;15375;48.540;9.268;2023-11-21T12:28:02;97003.59;;;9.10;100.00
4814;BME280;15375;48.540;9.268;2023-11-21T12:30:33;97002.03;;;9.09;100.00
4814;BME280;15375;48.540;9.268;2023-11-21T12:33:01;97021.34;;;9.18;100.00
4814;BME280;15375;48.540;9.268;2023-11-21T12:35:31;97022.75;;;9.26;100.00
4814;BME280;15375;48.540;9.268;2023-11-21T12:38:01;97032.63;;;9.17;100.00
4814;BME280;15375;48.540;9.268;2023-11-21T12:40:30;97031.09;;;9.16;100.00
4814;BME280;15375;48.540;9.268;2023-11-21T12:42:56;97030.03;;;9.10;100.00
4814;BME280;15375;48.540;9.268;2023-11-21T12:45:25;97039.38;;;9.09;100.00
4814;BME280;15375;48.540;9.268;2023-11-21T12:47:59;97040.91;;;9.10;100.00
4814;BME280;15375;48.540;9.268;2023-11-21T12:50:30;97041.25;;;9.12;100.00
4814;BME280;15375;48.540;9.268;2023-11-21T12:53:00;97023.16;;;9.02;100.00
4814;BME280;15375;48.540;9.268;2023-11-21T12:55:33;97040.97;;;9.06;100.00
4814;BME280;15375;48.540;9.268;2023-11-21T12:58:03;97029.28;;;8.86;100.00
4814;BME280;15375;48.540;9.268;2023-11-21T13:00:35;97041.38;;;9.05;100.00
4814;BME280;15375;48.540;9.268;2023-11-21T13:03:06;97031.41;;;8.98;100.00
4814;BME280;15375;48.540;9.268;2023-11-21T13:05:36;97014.94;;;8.82;100.00
4814;BME280;15375;48.540;9.268;2023-11-21T13:08:10;97035.16;;;9.04;100.00
4814;BME280;15375;48.540;9.268;2023-11-21T13:10:39;97012.34;;;8.98;100.00
4814;BME280;15375;48.540;9.268;2023-11-21T13:13:07;97042.50;;;9.07;100.00
4814;BME280;15375;48.540;9.268;2023-11-21T13:15:56;97035.41;;;9.13;100.00
4814;BME280;15375;48.540;9.268;2023-11-21T13:18:25;97033.16;;;9.08;100.00
4814;BME280;15375;48.540;9.268;2023-11-21T13:21:01;97027.38;;;9.06;100.00
4814;BME280;15375;48.540;9.268;2023-11-21T13:23:28;97044.06;;;9.08;100.00